sensor_id;sensor_type;location;lat;lon;timestamp;P1;durP1;ratioP1;P2;durP2;ratioP2
6537;SDS011;3302;52.508;13.454;2024-03-08T00:00:12;18.77;;;12.47;;
6537;SDS011;3302;52.508;13.454;2024-03-08T00:02:39;18.30;;;11.90;;
6537;SDS011;3302;52.508;13.454;2024-03-08T00:05:06;20.43;;;12.10;;
6537;SDS011;3302;52.508;13.454;2024-03-08T00:07:36;17.90;;;11.90;;
6537;SDS011;3302;52.508;13.454;2024-03-08T00:10:03;19.30;;;12.37;;
6537;SDS011;3302;52.508;13.454;2024-03-08T00:12:31;18.53;;;12.20;;
6537;SDS011;3302;52.508;13.454;2024-03-08T00:14:57;20.67;;;11.80;;
6537;SDS011;3302;52.508;13.454;2024-03-08T00:17:24;18.50;;;11.93;;
6537;SDS011;3302;52.508;13.454;2024-03-08T00:19:50;19.53;;;12.17;;
6537;SDS011;3302;52.508;13.454;2024-03-08T00:22:16;20.17;;;12.30;;
6537;SDS011;3302;52.508;13.454;2024-03-08T00:24:42;21.37;;;12.67;;
6537;SDS011;3302;52.508;13.454;2024-03-08T00:27:08;20.90;;;12.63;;
6537;SDS011;3302;52.508;13.454;2024-03-08T00:29:35;18.13;;;12.67;;
6537;SDS011;3302;52.508;13.454;2024-03-08T00:32:01;19.37;;;12.13;;
6537;SDS011;3302;52.508;13.454;2024-03-08T00:34:26;18.73;;;12.93;;
6537;SDS011;3302;52.508;13.454;2024-03-08T00:36:52;21.50;;;12.30;;
6537;SDS011;3302;52.508;13.454;2024-03-08T00:39:18;20.50;;;12.50;;
6537;SDS011;3302;52.508;13.454;2024-03-08T00:41:48;18.07;;;12.00;;
6537;SDS011;3302;52.508;13.454;2024-03-08T00:44:13;17.63;;;12.07;;
6537;SDS011;3302;52.508;13.454;2024-03-08T00:46:40;20.83;;;12.40;;
6537;SDS011;3302;52.508;13.454;2024-03-08T00:49:05;18.17;;;11.60;;
6537;SDS011;3302;52.508;13.454;2024-03-08T00:51:32;19.80;;;12.13;;
6537;SDS011;3302;52.508;13.454;2024-03-08T00:53:58;18.10;;;11.20;;
6537;SDS011;3302;52.508;13.454;2024-03-08T00:56:23;20.70;;;12.30;;
6537;SDS011;3302;52.508;13.454;2024-03-08T00:58:50;18.03;;;12.10;;
6537;SDS011;3302;52.508;13.454;2024-03-08T01:01:18;19.23;;;12.43;;
6537;SDS011;3302;52.508;13.454;2024-03-08T01:03:44;19.17;;;12.13;;
6537;SDS011;3302;52.508;13.454;2024-03-08T01:06:10;19.27;;;12.57;;
6537;SDS011;3302;52.508;13.454;2024-03-08T01:08:37;19.10;;;12.50;;
6537;SDS011;3302;52.508;13.454;2024-03-08T01:11:04;19.90;;;13.00;;
6537;SDS011;3302;52.508;13.454;2024-03-08T01:13:33;22.27;;;13.23;;
6537;SDS011;3302;52.508;13.454;2024-03-08T01:15:58;20.43;;;11.67;;
6537;SDS011;3302;52.508;13.454;2024-03-08T01:18:24;20.50;;;11.93;;
6537;SDS011;3302;52.508;13.454;2024-03-08T01:20:50;19.40;;;11.80;;
6537;SDS011;3302;52.508;13.454;2024-03-08T01:23:15;18.70;;;12.07;;
6537;SDS011;3302;52.508;13.454;2024-03-08T01:25:42;20.03;;;11.87;;
6537;SDS011;3302;52.508;13.454;2024-03-08T01:28:09;18.80;;;11.63;;
6537;SDS011;3302;52.508;13.454;2024-03-08T01:30:35;18.37;;;11.67;;
6537;SDS011;3302;52.508;13.454;2024-03-08T01:33:02;21.20;;;12.47;;
6537;SDS011;3302;52.508;13.454;2024-03-08T01:35:28;19.60;;;11.33;;
6537;SDS011;3302;52.508;13.454;2024-03-08T01:37:54;21.83;;;12.83;;
6537;SDS011;3302;52.508;13.454;2024-03-08T01:40:20;21.60;;;12.43;;
6537;SDS011;3302;52.508;13.454;2024-03-08T01:42:47;19.23;;;12.63;;
6537;SDS011;3302;52.508;13.454;2024-03-08T01:45:13;18.97;;;11.67;;
6537;SDS011;3302;52.508;13.454;2024-03-08T01:47:39;19.23;;;12.37;;
6537;SDS011;3302;52.508;13.454;2024-03-08T01:50:05;20.87;;;12.67;;
6537;SDS011;3302;52.508;13.454;2024-03-08T01:52:33;21.27;;;13.30;;
6537;SDS011;3302;52.508;13.454;2024-03-08T01:55:00;18.13;;;12.13;;
6537;SDS011;3302;52.508;13.454;2024-03-08T01:57:28;19.00;;;11.47;;
6537;SDS011;3302;52.508;13.454;2024-03-08T01:59:56;19.17;;;12.23;;
6537;SDS011;3302;52.508;13.454;2024-03-08T02:02:22;20.23;;;11.73;;
6537;SDS011;3302;52.508;13.454;2024-03-08T02:04:48;25.37;;;12.23;;
6537;SDS011;3302;52.508;13.454;2024-03-08T02:07:16;18.47;;;11.83;;
6537;SDS011;3302;52.508;13.454;2024-03-08T02:09:41;23.23;;;12.57;;
6537;SDS011;3302;52.508;13.454;2024-03-08T02:12:07;21.10;;;13.23;;
6537;SDS011;3302;52.508;13.454;2024-03-08T02:14:33;22.57;;;12.83;;
6537;SDS011;3302;52.508;13.454;2024-03-08T02:17:02;19.83;;;12.13;;
6537;SDS011;3302;52.508;13.454;2024-03-08T02:19:28;18.80;;;11.67;;
6537;SDS011;3302;52.508;13.454;2024-03-08T02:21:54;17.97;;;11.70;;
6537;SDS011;3302;52.508;13.454;2024-03-08T02:24:20;20.20;;;11.90;;
6537;SDS011;3302;52.508;13.454;2024-03-08T02:26:46;18.20;;;11.80;;
6537;SDS011;3302;52.508;13.454;2024-03-08T02:29:12;21.30;;;12.53;;
6537;SDS011;3302;52.508;13.454;2024-03-08T02:31:39;18.13;;;11.70;;
6537;SDS011;3302;52.508;13.454;2024-03-08T02:34:05;18.27;;;12.13;;
6537;SDS011;3302;52.508;13.454;2024-03-08T02:36:31;18.37;;;11.20;;
6537;SDS011;3302;52.508;13.454;2024-03-08T02:39:03;17.27;;;11.77;;
6537;SDS011;3302;52.508;13.454;2024-03-08T02:41:30;19.63;;;11.93;;
6537;SDS011;3302;52.508;13.454;2024-03-08T02:43:56;18.77;;;11.50;;
6537;SDS011;3302;52.508;13.454;2024-03-08T02:46:22;18.90;;;12.23;;
6537;SDS011;3302;52.508;13.454;2024-03-08T02:48:48;20.27;;;12.47;;
6537;SDS011;3302;52.508;13.454;2024-03-08T02:51:14;18.03;;;12.37;;
6537;SDS011;3302;52.508;13.454;2024-03-08T02:53:41;18.87;;;12.17;;
6537;SDS011;3302;52.508;13.454;2024-03-08T02:56:08;20.90;;;12.77;;
6537;SDS011;3302;52.508;13.454;2024-03-08T02:58:38;19.00;;;12.00;;
6537;SDS011;3302;52.508;13.454;2024-03-08T03:01:04;19.47;;;12.00;;
6537;SDS011;3302;52.508;13.454;2024-03-08T03:03:29;21.73;;;12.80;;
6537;SDS011;3302;52.508;13.454;2024-03-08T03:05:55;20.90;;;12.60;;
6537;SDS011;3302;52.508;13.454;2024-03-08T03:08:21;19.37;;;13.03;;
6537;SDS011;3302;52.508;13.454;2024-03-08T03:10:47;20.07;;;12.13;;
6537;SDS011;3302;52.508;13.454;2024-03-08T03:13:13;20.20;;;12.10;;
6537;SDS011;3302;52.508;13.454;2024-03-08T03:15:39;20.27;;;13.10;;
6537;SDS011;3302;52.508;13.454;2024-03-08T03:18:08;18.37;;;11.83;;
6537;SDS011;3302;52.508;13.454;2024-03-08T03:20:34;19.30;;;12.43;;
6537;SDS011;3302;52.508;13.454;2024-03-08T03:23:05;20.80;;;12.50;;
6537;SDS011;3302;52.508;13.454;2024-03-08T03:25:33;20.20;;;12.37;;
6537;SDS011;3302;52.508;13.454;2024-03-08T03:28:03;17.50;;;11.70;;
6537;SDS011;3302;52.508;13.454;2024-03-08T03:30:30;19.47;;;11.50;;
6537;SDS011;3302;52.508;13.454;2024-03-08T03:32:59;18.70;;;12.10;;
6537;SDS011;3302;52.508;13.454;2024-03-08T03:35:26;22.20;;;12.97;;
6537;SDS011;3302;52.508;13.454;2024-03-08T03:37:55;19.83;;;12.33;;
6537;SDS011;3302;52.508;13.454;2024-03-08T03:40:32;20.17;;;12.63;;
6537;SDS011;3302;52.508;13.454;2024-03-08T03:43:06;19.43;;;12.17;;
6537;SDS011;3302;52.508;13.454;2024-03-08T03:45:35;20.53;;;12.30;;
6537;SDS011;3302;52.508;13.454;2024-03-08T03:48:02;20.37;;;12.70;;
6537;SDS011;3302;52.508;13.454;2024-03-08T03:50:29;20.73;;;12.97;;
6537;SDS011;3302;52.508;13.454;2024-03-08T03:52:55;21.20;;;12.53;;
6537;SDS011;3302;52.508;13.454;2024-03-08T03:55:21;20.10;;;12.87;;
6537;SDS011;3302;52.508;13.454;2024-03-08T03:57:47;21.07;;;12.63;;
6537;SDS011;3302;52.508;13.454;2024-03-08T04:00:14;19.97;;;13.00;;
6537;SDS011;3302;52.508;13.454;2024-03-08T04:02:40;20.17;;;12.13;;
6537;SDS011;3302;52.508;13.454;2024-03-08T04:05:08;19.67;;;12.83;;
6537;SDS011;3302;52.508;13.454;2024-03-08T04:07:36;20.73;;;12.40;;
6537;SDS011;3302;52.508;13.454;2024-03-08T04:10:06;22.03;;;13.27;;
6537;SDS011;3302;52.508;13.454;2024-03-08T04:12:34;21.67;;;13.53;;
6537;SDS011;3302;52.508;13.454;2024-03-08T04:15:00;22.10;;;13.23;;
6537;SDS011;3302;52.508;13.454;2024-03-08T04:17:26;21.93;;;13.57;;
6537;SDS011;3302;52.508;13.454;2024-03-08T04:19:52;20.33;;;12.83;;
6537;SDS011;3302;52.508;13.454;2024-03-08T04:22:18;22.50;;;13.63;;
6537;SDS011;3302;52.508;13.454;2024-03-08T04:24:45;22.67;;;13.60;;
6537;SDS011;3302;52.508;13.454;2024-03-08T04:27:11;21.33;;;12.97;;
6537;SDS011;3302;52.508;13.454;2024-03-08T04:29:38;21.13;;;13.37;;
6537;SDS011;3302;52.508;13.454;2024-03-08T04:32:04;21.40;;;13.00;;
6537;SDS011;3302;52.508;13.454;2024-03-08T04:34:32;22.90;;;14.00;;
6537;SDS011;3302;52.508;13.454;2024-03-08T04:37:02;22.27;;;13.77;;
6537;SDS011;3302;52.508;13.454;2024-03-08T04:39:30;22.80;;;13.90;;
6537;SDS011;3302;52.508;13.454;2024-03-08T04:41:57;23.13;;;13.47;;
6537;SDS011;3302;52.508;13.454;2024-03-08T04:44:28;24.80;;;15.00;;
6537;SDS011;3302;52.508;13.454;2024-03-08T04:46:54;22.70;;;13.20;;
6537;SDS011;3302;52.508;13.454;2024-03-08T04:49:20;22.53;;;13.67;;
6537;SDS011;3302;52.508;13.454;2024-03-08T04:51:47;22.97;;;13.07;;
6537;SDS011;3302;52.508;13.454;2024-03-08T04:54:13;23.87;;;13.63;;
6537;SDS011;3302;52.508;13.454;2024-03-08T04:56:39;23.93;;;13.50;;
6537;SDS011;3302;52.508;13.454;2024-03-08T04:59:05;21.77;;;13.10;;
6537;SDS011;3302;52.508;13.454;2024-03-08T05:01:33;21.77;;;13.37;;
6537;SDS011;3302;52.508;13.454;2024-03-08T05:04:03;23.93;;;14.00;;
6537;SDS011;3302;52.508;13.454;2024-03-08T05:06:29;24.70;;;14.43;;
6537;SDS011;3302;52.508;13.454;2024-03-08T05:08:55;22.83;;;14.23;;
6537;SDS011;3302;52.508;13.454;2024-03-08T05:11:21;27.03;;;14.20;;
6537;SDS011;3302;52.508;13.454;2024-03-08T05:13:47;23.57;;;14.17;;
6537;SDS011;3302;52.508;13.454;2024-03-08T05:16:13;21.47;;;13.80;;
6537;SDS011;3302;52.508;13.454;2024-03-08T05:18:40;23.83;;;13.87;;
6537;SDS011;3302;52.508;13.454;2024-03-08T05:21:07;26.83;;;14.47;;
6537;SDS011;3302;52.508;13.454;2024-03-08T05:23:34;23.73;;;14.33;;
6537;SDS011;3302;52.508;13.454;2024-03-08T05:26:00;23.00;;;13.70;;
6537;SDS011;3302;52.508;13.454;2024-03-08T05:28:26;23.43;;;14.50;;
6537;SDS011;3302;52.508;13.454;2024-03-08T05:30:52;23.87;;;13.90;;
6537;SDS011;3302;52.508;13.454;2024-03-08T05:33:17;32.40;;;15.30;;
6537;SDS011;3302;52.508;13.454;2024-03-08T05:35:44;24.77;;;14.53;;
6537;SDS011;3302;52.508;13.454;2024-03-08T05:38:10;25.90;;;15.17;;
6537;SDS011;3302;52.508;13.454;2024-03-08T05:40:38;27.83;;;15.07;;
6537;SDS011;3302;52.508;13.454;2024-03-08T05:43:04;23.63;;;14.90;;
6537;SDS011;3302;52.508;13.454;2024-03-08T05:45:30;26.23;;;14.30;;
6537;SDS011;3302;52.508;13.454;2024-03-08T05:47:56;26.27;;;15.20;;
6537;SDS011;3302;52.508;13.454;2024-03-08T05:50:22;25.17;;;14.93;;
6537;SDS011;3302;52.508;13.454;2024-03-08T05:52:47;23.90;;;14.73;;
6537;SDS011;3302;52.508;13.454;2024-03-08T05:55:14;27.63;;;15.37;;
6537;SDS011;3302;52.508;13.454;2024-03-08T05:57:41;27.53;;;15.97;;
6537;SDS011;3302;52.508;13.454;2024-03-08T06:00:07;23.97;;;14.63;;
6537;SDS011;3302;52.508;13.454;2024-03-08T06:02:38;23.23;;;14.50;;
6537;SDS011;3302;52.508;13.454;2024-03-08T06:05:15;25.67;;;15.90;;
6537;SDS011;3302;52.508;13.454;2024-03-08T06:07:41;26.57;;;14.80;;
6537;SDS011;3302;52.508;13.454;2024-03-08T06:10:10;24.73;;;14.47;;
6537;SDS011;3302;52.508;13.454;2024-03-08T06:12:37;24.10;;;14.80;;
6537;SDS011;3302;52.508;13.454;2024-03-08T06:15:09;26.27;;;15.33;;
6537;SDS011;3302;52.508;13.454;2024-03-08T06:17:39;26.30;;;15.47;;
6537;SDS011;3302;52.508;13.454;2024-03-08T06:20:08;28.37;;;16.33;;
6537;SDS011;3302;52.508;13.454;2024-03-08T06:22:41;26.73;;;14.70;;
6537;SDS011;3302;52.508;13.454;2024-03-08T06:25:10;24.00;;;15.13;;
6537;SDS011;3302;52.508;13.454;2024-03-08T06:27:40;28.97;;;16.53;;
6537;SDS011;3302;52.508;13.454;2024-03-08T06:30:09;25.93;;;15.13;;
6537;SDS011;3302;52.508;13.454;2024-03-08T06:32:35;24.10;;;15.00;;
6537;SDS011;3302;52.508;13.454;2024-03-08T06:35:02;25.33;;;15.40;;
6537;SDS011;3302;52.508;13.454;2024-03-08T06:37:34;25.93;;;15.63;;
6537;SDS011;3302;52.508;13.454;2024-03-08T06:40:00;28.10;;;15.77;;
6537;SDS011;3302;52.508;13.454;2024-03-08T06:42:27;26.47;;;15.83;;
6537;SDS011;3302;52.508;13.454;2024-03-08T06:44:53;26.00;;;15.37;;
6537;SDS011;3302;52.508;13.454;2024-03-08T06:47:21;25.47;;;14.90;;
6537;SDS011;3302;52.508;13.454;2024-03-08T06:49:51;25.47;;;16.03;;
6537;SDS011;3302;52.508;13.454;2024-03-08T06:52:17;26.93;;;16.07;;
6537;SDS011;3302;52.508;13.454;2024-03-08T06:54:43;30.23;;;15.87;;
6537;SDS011;3302;52.508;13.454;2024-03-08T06:57:09;23.60;;;14.80;;
6537;SDS011;3302;52.508;13.454;2024-03-08T06:59:36;27.80;;;14.90;;
6537;SDS011;3302;52.508;13.454;2024-03-08T07:02:02;25.90;;;15.70;;
6537;SDS011;3302;52.508;13.454;2024-03-08T07:04:29;27.27;;;15.57;;
6537;SDS011;3302;52.508;13.454;2024-03-08T07:06:58;28.20;;;15.03;;
6537;SDS011;3302;52.508;13.454;2024-03-08T07:09:24;25.37;;;15.63;;
6537;SDS011;3302;52.508;13.454;2024-03-08T07:11:50;24.90;;;15.67;;
6537;SDS011;3302;52.508;13.454;2024-03-08T07:14:22;24.40;;;14.03;;
6537;SDS011;3302;52.508;13.454;2024-03-08T07:16:49;25.27;;;14.53;;
6537;SDS011;3302;52.508;13.454;2024-03-08T07:19:15;23.00;;;14.57;;
6537;SDS011;3302;52.508;13.454;2024-03-08T07:21:42;22.87;;;14.03;;
6537;SDS011;3302;52.508;13.454;2024-03-08T07:24:09;26.30;;;15.00;;
6537;SDS011;3302;52.508;13.454;2024-03-08T07:26:54;22.53;;;13.83;;
6537;SDS011;3302;52.508;13.454;2024-03-08T07:29:21;22.17;;;13.73;;
6537;SDS011;3302;52.508;13.454;2024-03-08T07:31:47;24.10;;;14.20;;
6537;SDS011;3302;52.508;13.454;2024-03-08T07:34:21;23.10;;;14.50;;
6537;SDS011;3302;52.508;13.454;2024-03-08T07:36:47;21.83;;;12.93;;
6537;SDS011;3302;52.508;13.454;2024-03-08T07:39:16;26.80;;;14.57;;
6537;SDS011;3302;52.508;13.454;2024-03-08T07:41:42;21.50;;;14.67;;
6537;SDS011;3302;52.508;13.454;2024-03-08T07:44:08;22.10;;;14.43;;
6537;SDS011;3302;52.508;13.454;2024-03-08T07:46:34;26.07;;;14.90;;
6537;SDS011;3302;52.508;13.454;2024-03-08T07:49:01;25.27;;;15.20;;
6537;SDS011;3302;52.508;13.454;2024-03-08T07:51:28;23.90;;;14.53;;
6537;SDS011;3302;52.508;13.454;2024-03-08T07:53:54;21.47;;;14.00;;
6537;SDS011;3302;52.508;13.454;2024-03-08T07:56:20;22.07;;;14.13;;
6537;SDS011;3302;52.508;13.454;2024-03-08T07:58:47;22.63;;;14.30;;
6537;SDS011;3302;52.508;13.454;2024-03-08T08:01:17;23.07;;;15.17;;
6537;SDS011;3302;52.508;13.454;2024-03-08T08:03:43;24.47;;;14.97;;
6537;SDS011;3302;52.508;13.454;2024-03-08T08:06:09;22.63;;;14.67;;
6537;SDS011;3302;52.508;13.454;2024-03-08T08:08:44;20.50;;;12.77;;
6537;SDS011;3302;52.508;13.454;2024-03-08T08:11:10;22.03;;;14.00;;
6537;SDS011;3302;52.508;13.454;2024-03-08T08:13:40;22.13;;;13.60;;
6537;SDS011;3302;52.508;13.454;2024-03-08T08:16:08;21.00;;;12.67;;
6537;SDS011;3302;52.508;13.454;2024-03-08T08:18:35;23.57;;;14.40;;
6537;SDS011;3302;52.508;13.454;2024-03-08T08:21:02;23.43;;;14.77;;
6537;SDS011;3302;52.508;13.454;2024-03-08T08:23:28;21.27;;;14.87;;
6537;SDS011;3302;52.508;13.454;2024-03-08T08:25:55;22.23;;;13.77;;
6537;SDS011;3302;52.508;13.454;2024-03-08T08:28:21;22.00;;;14.27;;
6537;SDS011;3302;52.508;13.454;2024-03-08T08:30:46;19.70;;;13.70;;
6537;SDS011;3302;52.508;13.454;2024-03-08T08:33:14;22.93;;;13.77;;
6537;SDS011;3302;52.508;13.454;2024-03-08T08:35:40;22.60;;;13.47;;
6537;SDS011;3302;52.508;13.454;2024-03-08T08:38:06;20.17;;;13.70;;
6537;SDS011;3302;52.508;13.454;2024-03-08T08:40:34;23.07;;;12.33;;
6537;SDS011;3302;52.508;13.454;2024-03-08T08:43:02;19.63;;;12.77;;
6537;SDS011;3302;52.508;13.454;2024-03-08T08:45:32;20.40;;;13.57;;
6537;SDS011;3302;52.508;13.454;2024-03-08T08:47:58;23.00;;;13.27;;
6537;SDS011;3302;52.508;13.454;2024-03-08T08:50:25;22.27;;;13.67;;
6537;SDS011;3302;52.508;13.454;2024-03-08T08:52:53;20.70;;;12.40;;
6537;SDS011;3302;52.508;13.454;2024-03-08T08:55:20;19.00;;;12.40;;
6537;SDS011;3302;52.508;13.454;2024-03-08T08:57:46;20.00;;;13.23;;
6537;SDS011;3302;52.508;13.454;2024-03-08T09:00:17;28.53;;;16.17;;
6537;SDS011;3302;52.508;13.454;2024-03-08T09:02:47;19.50;;;12.63;;
6537;SDS011;3302;52.508;13.454;2024-03-08T09:05:13;20.43;;;13.63;;
6537;SDS011;3302;52.508;13.454;2024-03-08T09:07:43;20.03;;;12.87;;
6537;SDS011;3302;52.508;13.454;2024-03-08T09:10:10;19.33;;;13.23;;
6537;SDS011;3302;52.508;13.454;2024-03-08T09:12:38;21.43;;;13.57;;
6537;SDS011;3302;52.508;13.454;2024-03-08T09:15:04;21.23;;;13.43;;
6537;SDS011;3302;52.508;13.454;2024-03-08T09:17:33;22.43;;;13.03;;
6537;SDS011;3302;52.508;13.454;2024-03-08T09:19:59;20.17;;;13.30;;
6537;SDS011;3302;52.508;13.454;2024-03-08T09:22:25;20.67;;;13.60;;
6537;SDS011;3302;52.508;13.454;2024-03-08T09:24:51;21.13;;;14.00;;
6537;SDS011;3302;52.508;13.454;2024-03-08T09:27:17;20.70;;;13.70;;
6537;SDS011;3302;52.508;13.454;2024-03-08T09:29:43;19.13;;;13.63;;
6537;SDS011;3302;52.508;13.454;2024-03-08T09:32:09;19.23;;;13.67;;
6537;SDS011;3302;52.508;13.454;2024-03-08T09:34:37;20.57;;;13.13;;
6537;SDS011;3302;52.508;13.454;2024-03-08T09:37:03;20.47;;;12.83;;
6537;SDS011;3302;52.508;13.454;2024-03-08T09:39:29;18.97;;;13.50;;
6537;SDS011;3302;52.508;13.454;2024-03-08T09:41:55;23.67;;;15.33;;
6537;SDS011;3302;52.508;13.454;2024-03-08T09:44:21;18.77;;;12.80;;
6537;SDS011;3302;52.508;13.454;2024-03-08T09:46:48;18.93;;;12.83;;
6537;SDS011;3302;52.508;13.454;2024-03-08T09:49:19;20.37;;;13.70;;
6537;SDS011;3302;52.508;13.454;2024-03-08T09:51:44;19.27;;;13.17;;
6537;SDS011;3302;52.508;13.454;2024-03-08T09:54:11;18.87;;;13.10;;
6537;SDS011;3302;52.508;13.454;2024-03-08T09:56:39;18.17;;;12.00;;
6537;SDS011;3302;52.508;13.454;2024-03-08T09:59:09;18.77;;;12.53;;
6537;SDS011;3302;52.508;13.454;2024-03-08T10:01:50;18.07;;;12.50;;
6537;SDS011;3302;52.508;13.454;2024-03-08T10:04:24;18.17;;;12.07;;
6537;SDS011;3302;52.508;13.454;2024-03-08T10:06:51;19.43;;;12.40;;
6537;SDS011;3302;52.508;13.454;2024-03-08T10:09:17;19.77;;;11.77;;
6537;SDS011;3302;52.508;13.454;2024-03-08T10:11:43;19.57;;;11.20;;
6537;SDS011;3302;52.508;13.454;2024-03-08T10:14:10;18.40;;;11.87;;
6537;SDS011;3302;52.508;13.454;2024-03-08T10:16:37;16.63;;;12.20;;
6537;SDS011;3302;52.508;13.454;2024-03-08T10:19:04;19.90;;;11.93;;
6537;SDS011;3302;52.508;13.454;2024-03-08T10:21:31;17.80;;;12.00;;
6537;SDS011;3302;52.508;13.454;2024-03-08T10:24:02;16.90;;;11.87;;
6537;SDS011;3302;52.508;13.454;2024-03-08T10:26:28;18.60;;;12.53;;
6537;SDS011;3302;52.508;13.454;2024-03-08T10:28:55;22.73;;;12.17;;
6537;SDS011;3302;52.508;13.454;2024-03-08T10:31:23;15.80;;;11.10;;
6537;SDS011;3302;52.508;13.454;2024-03-08T10:33:48;17.57;;;12.00;;
6537;SDS011;3302;52.508;13.454;2024-03-08T10:36:14;18.80;;;11.70;;
6537;SDS011;3302;52.508;13.454;2024-03-08T10:38:41;14.63;;;10.73;;
6537;SDS011;3302;52.508;13.454;2024-03-08T10:41:12;16.40;;;10.17;;
6537;SDS011;3302;52.508;13.454;2024-03-08T10:46:46;14.53;;;10.13;;
6537;SDS011;3302;52.508;13.454;2024-03-08T10:49:28;18.03;;;11.37;;
6537;SDS011;3302;52.508;13.454;2024-03-08T10:52:14;16.73;;;10.73;;
6537;SDS011;3302;52.508;13.454;2024-03-08T10:54:42;17.97;;;10.57;;
6537;SDS011;3302;52.508;13.454;2024-03-08T10:57:10;18.13;;;10.80;;
6537;SDS011;3302;52.508;13.454;2024-03-08T10:59:38;16.07;;;10.67;;
6537;SDS011;3302;52.508;13.454;2024-03-08T11:02:04;15.47;;;10.47;;
6537;SDS011;3302;52.508;13.454;2024-03-08T11:04:31;16.50;;;11.17;;
6537;SDS011;3302;52.508;13.454;2024-03-08T11:07:02;17.23;;;10.70;;
6537;SDS011;3302;52.508;13.454;2024-03-08T11:09:37;17.10;;;11.13;;
6537;SDS011;3302;52.508;13.454;2024-03-08T11:15:16;16.20;;;11.17;;
6537;SDS011;3302;52.508;13.454;2024-03-08T11:17:44;14.00;;;10.20;;
6537;SDS011;3302;52.508;13.454;2024-03-08T11:20:18;16.70;;;10.63;;
6537;SDS011;3302;52.508;13.454;2024-03-08T11:22:48;14.07;;;10.60;;
6537;SDS011;3302;52.508;13.454;2024-03-08T11:25:38;15.23;;;9.97;;
6537;SDS011;3302;52.508;13.454;2024-03-08T11:28:15;16.57;;;10.87;;
6537;SDS011;3302;52.508;13.454;2024-03-08T11:30:44;15.63;;;11.07;;
6537;SDS011;3302;52.508;13.454;2024-03-08T11:33:13;19.33;;;12.40;;
6537;SDS011;3302;52.508;13.454;2024-03-08T11:35:40;16.90;;;11.57;;
6537;SDS011;3302;52.508;13.454;2024-03-08T11:38:10;17.97;;;11.63;;
6537;SDS011;3302;52.508;13.454;2024-03-08T11:40:35;17.07;;;11.33;;
6537;SDS011;3302;52.508;13.454;2024-03-08T11:43:01;15.97;;;10.40;;
6537;SDS011;3302;52.508;13.454;2024-03-08T11:45:33;15.00;;;10.37;;
6537;SDS011;3302;52.508;13.454;2024-03-08T11:48:04;15.27;;;10.47;;
6537;SDS011;3302;52.508;13.454;2024-03-08T11:50:30;17.23;;;11.53;;
6537;SDS011;3302;52.508;13.454;2024-03-08T11:53:03;17.13;;;11.07;;
6537;SDS011;3302;52.508;13.454;2024-03-08T11:55:33;17.13;;;10.90;;
6537;SDS011;3302;52.508;13.454;2024-03-08T11:58:01;15.90;;;10.77;;
6537;SDS011;3302;52.508;13.454;2024-03-08T12:00:28;17.50;;;11.10;;
6537;SDS011;3302;52.508;13.454;2024-03-08T12:03:06;14.40;;;10.73;;
6537;SDS011;3302;52.508;13.454;2024-03-08T12:05:34;16.03;;;11.23;;
6537;SDS011;3302;52.508;13.454;2024-03-08T12:08:01;16.67;;;11.43;;
6537;SDS011;3302;52.508;13.454;2024-03-08T12:10:28;18.13;;;11.07;;
6537;SDS011;3302;52.508;13.454;2024-03-08T12:12:56;14.73;;;10.27;;
6537;SDS011;3302;52.508;13.454;2024-03-08T12:15:28;15.67;;;11.13;;
6537;SDS011;3302;52.508;13.454;2024-03-08T12:17:55;15.27;;;10.60;;
6537;SDS011;3302;52.508;13.454;2024-03-08T12:20:22;18.50;;;12.03;;
6537;SDS011;3302;52.508;13.454;2024-03-08T12:22:55;16.07;;;10.63;;
6537;SDS011;3302;52.508;13.454;2024-03-08T12:25:22;15.13;;;11.00;;
6537;SDS011;3302;52.508;13.454;2024-03-08T12:27:51;16.10;;;10.53;;
6537;SDS011;3302;52.508;13.454;2024-03-08T12:30:25;17.30;;;10.97;;
6537;SDS011;3302;52.508;13.454;2024-03-08T12:35:19;15.23;;;10.47;;
6537;SDS011;3302;52.508;13.454;2024-03-08T12:37:50;16.53;;;10.97;;
6537;SDS011;3302;52.508;13.454;2024-03-08T12:40:18;15.03;;;10.10;;
6537;SDS011;3302;52.508;13.454;2024-03-08T12:42:50;14.67;;;10.33;;
6537;SDS011;3302;52.508;13.454;2024-03-08T12:45:16;14.17;;;10.23;;
6537;SDS011;3302;52.508;13.454;2024-03-08T12:47:42;14.10;;;10.77;;
6537;SDS011;3302;52.508;13.454;2024-03-08T12:50:09;16.07;;;10.40;;
6537;SDS011;3302;52.508;13.454;2024-03-08T12:52:35;13.40;;;10.33;;
6537;SDS011;3302;52.508;13.454;2024-03-08T12:55:02;14.67;;;10.33;;
6537;SDS011;3302;52.508;13.454;2024-03-08T12:57:28;19.50;;;11.20;;
6537;SDS011;3302;52.508;13.454;2024-03-08T12:59:54;14.80;;;9.97;;
6537;SDS011;3302;52.508;13.454;2024-03-08T13:02:20;15.10;;;10.93;;
6537;SDS011;3302;52.508;13.454;2024-03-08T13:04:49;16.70;;;10.77;;
6537;SDS011;3302;52.508;13.454;2024-03-08T13:07:22;14.97;;;10.40;;
6537;SDS011;3302;52.508;13.454;2024-03-08T13:09:53;14.77;;;9.80;;
6537;SDS011;3302;52.508;13.454;2024-03-08T13:12:20;18.27;;;10.00;;
6537;SDS011;3302;52.508;13.454;2024-03-08T13:14:47;14.10;;;10.20;;
6537;SDS011;3302;52.508;13.454;2024-03-08T13:17:14;16.10;;;10.40;;
6537;SDS011;3302;52.508;13.454;2024-03-08T13:19:40;14.47;;;10.60;;
6537;SDS011;3302;52.508;13.454;2024-03-08T13:22:08;15.97;;;10.57;;
6537;SDS011;3302;52.508;13.454;2024-03-08T13:24:40;15.10;;;9.63;;
6537;SDS011;3302;52.508;13.454;2024-03-08T13:27:07;16.13;;;10.73;;
6537;SDS011;3302;52.508;13.454;2024-03-08T13:29:45;14.13;;;9.07;;
6537;SDS011;3302;52.508;13.454;2024-03-08T13:32:12;14.03;;;10.07;;
6537;SDS011;3302;52.508;13.454;2024-03-08T13:34:42;13.67;;;9.40;;
6537;SDS011;3302;52.508;13.454;2024-03-08T13:37:08;12.93;;;9.50;;
6537;SDS011;3302;52.508;13.454;2024-03-08T13:39:37;12.93;;;8.97;;
6537;SDS011;3302;52.508;13.454;2024-03-08T13:42:07;12.83;;;9.63;;
6537;SDS011;3302;52.508;13.454;2024-03-08T13:44:36;15.73;;;9.80;;
6537;SDS011;3302;52.508;13.454;2024-03-08T13:47:02;13.07;;;9.43;;
6537;SDS011;3302;52.508;13.454;2024-03-08T13:49:30;12.87;;;8.97;;
6537;SDS011;3302;52.508;13.454;2024-03-08T13:51:56;12.50;;;8.73;;
6537;SDS011;3302;52.508;13.454;2024-03-08T13:54:24;14.63;;;8.90;;
6537;SDS011;3302;52.508;13.454;2024-03-08T13:56:52;13.13;;;9.60;;
6537;SDS011;3302;52.508;13.454;2024-03-08T13:59:19;14.47;;;9.20;;
6537;SDS011;3302;52.508;13.454;2024-03-08T14:01:48;12.97;;;9.63;;
6537;SDS011;3302;52.508;13.454;2024-03-08T14:04:14;14.77;;;9.57;;
6537;SDS011;3302;52.508;13.454;2024-03-08T14:06:42;11.90;;;8.80;;
6537;SDS011;3302;52.508;13.454;2024-03-08T14:09:10;14.30;;;9.60;;
6537;SDS011;3302;52.508;13.454;2024-03-08T14:11:45;12.43;;;9.47;;
6537;SDS011;3302;52.508;13.454;2024-03-08T14:14:11;12.10;;;9.83;;
6537;SDS011;3302;52.508;13.454;2024-03-08T14:16:41;13.47;;;9.50;;
6537;SDS011;3302;52.508;13.454;2024-03-08T14:19:08;14.10;;;9.77;;
6537;SDS011;3302;52.508;13.454;2024-03-08T14:21:35;16.37;;;10.10;;
6537;SDS011;3302;52.508;13.454;2024-03-08T14:24:02;14.87;;;9.43;;
6537;SDS011;3302;52.508;13.454;2024-03-08T14:26:29;14.70;;;9.70;;
6537;SDS011;3302;52.508;13.454;2024-03-08T14:28:55;13.63;;;9.90;;
6537;SDS011;3302;52.508;13.454;2024-03-08T14:31:22;14.70;;;10.20;;
6537;SDS011;3302;52.508;13.454;2024-03-08T14:33:51;15.27;;;10.37;;
6537;SDS011;3302;52.508;13.454;2024-03-08T14:36:18;12.63;;;9.23;;
6537;SDS011;3302;52.508;13.454;2024-03-08T14:38:50;13.80;;;9.73;;
6537;SDS011;3302;52.508;13.454;2024-03-08T14:41:17;14.67;;;9.40;;
6537;SDS011;3302;52.508;13.454;2024-03-08T14:43:43;15.20;;;9.50;;
6537;SDS011;3302;52.508;13.454;2024-03-08T14:46:17;14.87;;;9.00;;